Alpine, New Jersey
Current Conditions -  °F | °C
As of 2:51 PM on Thursday 30 Oct 2014 (Local Time) from KTEB Reporting Station
Broken Clouds Broken Clouds  
Wind Chill: 58°   Ceiling: 5000
Heat Index: 58°   Visibility: 10mi
Dew Point: 34°   Wind: 12mph
Humidity: 41%   Direction: 350°N
Pressure: 29.96"   Gusts: NA
Location:  40.96°N, 73.93°W
Report Text: KTEB 301851Z 35010KT 10SM BKN050 14/01 A2996 RMK AO2 SLP145 T01440011
Loading
Personal Weather Stations






























Interactive Weather Map New forecast layout! Learn more

10-Day Weather Forecast

Advertisements
Track Severe Weather on mobile